Time;durP1;ratioP1;P1;durP2;ratioP2;P2;SDS_P1;SDS_P2;PMS_P1;PMS_P2;Temp;Humidity;BMP_temperature;BMP_pressure;BME280_temperature;BME280_humidity;BME280_pressure;Samples;Min_cycle;Max_cycle;Signal;HPM_P1;HPM_P2
2020/12/26 00:00:39;;;;;;;19.85;9.27;;;4.10;99.90;;;;;;5009993;28;20025;-60
2020/12/26 00:03:05;;;;;;;18.27;8.85;;;4.10;99.90;;;;;;5009972;28;20388;-60
2020/12/26 00:05:31;;;;;;;23.38;9.52;;;4.10;99.90;;;;;;5002654;28;20094;-61
2020/12/26 00:07:56;;;;;;;23.33;10.85;;;4.10;99.90;;;;;;5008132;28;20052;-60
2020/12/26 00:10:22;;;;;;;26.85;10.10;;;4.10;99.90;;;;;;5008566;28;20026;-61
2020/12/26 00:12:48;;;;;;;23.30;11.10;;;4.10;99.90;;;;;;5024326;28;20115;-61
2020/12/26 00:15:13;;;;;;;19.95;10.82;;;4.10;99.90;;;;;;5011062;28;20053;-60
2020/12/26 00:17:39;;;;;;;30.60;11.15;;;4.10;99.90;;;;;;5009619;28;20026;-61
2020/12/26 00:20:06;;;;;;;22.10;11.82;;;4.10;99.90;;;;;;5008818;28;20034;-61
2020/12/26 00:22:34;;;;;;;28.27;12.32;;;4.10;99.90;;;;;;5009090;28;20559;-60
2020/12/26 00:25:00;;;;;;;26.83;12.00;;;4.10;99.90;;;;;;5006307;28;20041;-60
2020/12/26 00:27:25;;;;;;;33.72;13.07;;;4.10;99.90;;;;;;5017678;28;20029;-61
2020/12/26 00:29:51;;;;;;;28.05;13.00;;;4.10;99.90;;;;;;5020757;28;20033;-61
2020/12/26 00:32:16;;;;;;;25.70;13.57;;;4.10;99.90;;;;;;5008932;28;20022;-60
2020/12/26 00:34:42;;;;;;;32.92;15.10;;;4.10;99.90;;;;;;5005230;28;20109;-60
2020/12/26 00:37:07;;;;;;;31.23;15.00;;;4.10;99.90;;;;;;5008627;28;20108;-61
2020/12/26 00:39:33;;;;;;;27.35;14.55;;;4.10;99.90;;;;;;5001143;28;20034;-59
2020/12/26 00:41:59;;;;;;;31.20;14.23;;;4.10;99.90;;;;;;4999812;28;20036;-60
2020/12/26 00:44:24;;;;;;;30.25;14.73;;;4.10;99.90;;;;;;5000689;28;20022;-60
2020/12/26 00:46:50;;;;;;;30.50;14.00;;;4.10;99.90;;;;;;5001414;28;20559;-60
2020/12/26 00:49:15;;;;;;;25.27;14.10;;;4.10;99.90;;;;;;5000289;28;20034;-58
2020/12/26 00:51:41;;;;;;;38.50;14.50;;;4.10;99.90;;;;;;5006126;28;20022;-59
2020/12/26 00:54:06;;;;;;;29.02;14.05;;;4.10;99.90;;;;;;4991636;28;20369;-59
2020/12/26 00:56:38;;;;;;;25.17;14.43;;;4.10;99.90;;;;;;4991241;28;20049;-60
2020/12/26 00:59:03;;;;;;;27.35;15.02;;;4.10;99.90;;;;;;5006110;28;20038;-60
2020/12/26 01:01:29;;;;;;;30.23;15.45;;;4.10;99.90;;;;;;5001724;28;20068;-60
2020/12/26 01:03:54;;;;;;;23.92;13.98;;;4.10;99.90;;;;;;5004707;28;20026;-60
2020/12/26 01:06:20;;;;;;;26.88;15.07;;;4.10;99.90;;;;;;5000041;28;20029;-58
2020/12/26 01:08:45;;;;;;;32.35;15.73;;;4.10;99.90;;;;;;5002652;28;20037;-59
2020/12/26 01:11:11;;;;;;;23.65;13.80;;;4.10;99.90;;;;;;5006311;28;20042;-60
2020/12/26 01:13:36;;;;;;;42.17;16.90;;;4.10;99.90;;;;;;5000765;28;20034;-60
2020/12/26 01:16:02;;;;;;;25.38;14.65;;;4.10;99.90;;;;;;5006253;28;20120;-60
2020/12/26 01:18:29;;;;;;;28.77;15.88;;;4.00;99.90;;;;;;5003178;28;20026;-60
2020/12/26 01:20:56;;;;;;;32.13;17.83;;;4.10;99.90;;;;;;4997520;28;20030;-60
2020/12/26 01:23:21;;;;;;;37.60;17.55;;;4.00;99.90;;;;;;5002435;28;20026;-58
2020/12/26 01:25:48;;;;;;;28.83;17.38;;;4.10;99.90;;;;;;5006232;28;20040;-60
2020/12/26 01:28:14;;;;;;;30.38;17.85;;;4.10;99.90;;;;;;5001384;28;20038;-60
2020/12/26 01:30:40;;;;;;;35.38;18.52;;;4.10;99.90;;;;;;5002320;28;20033;-60
2020/12/26 01:33:05;;;;;;;33.03;18.67;;;4.10;99.90;;;;;;5005408;28;20125;-60
2020/12/26 01:35:31;;;;;;;32.13;18.10;;;4.10;99.90;;;;;;4996289;28;20042;-61
2020/12/26 01:37:56;;;;;;;33.40;20.85;;;4.10;99.90;;;;;;4991773;28;20038;-60
2020/12/26 01:40:22;;;;;;;35.05;20.48;;;4.10;99.90;;;;;;5002926;28;20054;-60
2020/12/26 01:42:47;;;;;;;38.10;20.48;;;4.10;99.90;;;;;;5005339;28;20044;-60
2020/12/26 01:45:13;;;;;;;32.83;19.05;;;4.10;99.90;;;;;;5008364;28;20113;-60
2020/12/26 01:47:39;;;;;;;47.25;20.70;;;4.10;99.90;;;;;;5003760;28;20396;-61
2020/12/26 01:50:05;;;;;;;42.92;20.55;;;4.10;99.90;;;;;;5006192;28;20034;-60
2020/12/26 01:52:31;;;;;;;38.42;22.15;;;4.10;99.90;;;;;;5005955;28;20030;-60
2020/12/26 01:54:58;;;;;;;42.35;23.02;;;4.00;99.90;;;;;;5003064;28;20034;-60
2020/12/26 01:57:34;;;;;;;36.90;20.73;;;4.00;99.90;;;;;;5004136;28;20026;-60
2020/12/26 02:00:09;;;;;;;45.83;23.15;;;4.00;99.90;;;;;;5005068;28;20048;-60
2020/12/26 02:02:35;;;;;;;36.83;21.85;;;4.00;99.90;;;;;;4989181;28;20161;-60
2020/12/26 02:05:00;;;;;;;38.92;23.17;;;4.00;99.90;;;;;;5000226;28;20101;-58
2020/12/26 02:07:26;;;;;;;45.38;23.90;;;3.90;99.90;;;;;;4999803;28;20388;-60
2020/12/26 02:09:52;;;;;;;41.40;23.63;;;3.90;99.90;;;;;;5003643;28;20640;-59
2020/12/26 02:12:18;;;;;;;43.95;24.45;;;3.90;99.90;;;;;;4989804;28;20798;-60
2020/12/26 02:14:45;;;;;;;38.65;23.40;;;3.90;99.90;;;;;;5003422;28;20037;-60
2020/12/26 02:17:11;;;;;;;47.22;24.48;;;3.90;99.90;;;;;;5000161;28;20026;-60
2020/12/26 02:19:36;;;;;;;43.60;24.33;;;3.90;99.90;;;;;;5004347;28;20052;-61
2020/12/26 02:22:02;;;;;;;40.78;23.63;;;3.90;99.90;;;;;;4991741;28;20053;-59
2020/12/26 02:24:27;;;;;;;42.33;24.23;;;3.90;99.90;;;;;;4999791;28;20049;-60
2020/12/26 02:26:53;;;;;;;43.17;22.90;;;3.90;99.90;;;;;;5011665;28;20045;-59
2020/12/26 02:29:18;;;;;;;43.25;22.60;;;3.90;99.90;;;;;;5004293;28;20029;-61
2020/12/26 02:31:44;;;;;;;35.50;21.33;;;3.90;99.90;;;;;;4996114;28;20060;-59
2020/12/26 02:34:09;;;;;;;41.03;22.02;;;3.90;99.90;;;;;;4999653;28;20058;-59
2020/12/26 02:36:35;;;;;;;41.70;21.50;;;3.90;99.90;;;;;;5011406;28;20044;-58
2020/12/26 02:39:01;;;;;;;39.17;20.48;;;3.90;99.90;;;;;;5003277;28;20054;-60
2020/12/26 02:41:27;;;;;;;30.70;19.67;;;3.80;99.90;;;;;;5010297;28;20029;-60
2020/12/26 02:43:52;;;;;;;32.83;19.52;;;3.80;99.90;;;;;;4998930;28;20467;-59
2020/12/26 02:46:18;;;;;;;38.13;18.52;;;3.80;99.90;;;;;;4998755;28;20507;-59
2020/12/26 02:48:43;;;;;;;40.63;22.13;;;3.80;99.90;;;;;;5008452;28;20041;-60
2020/12/26 02:51:09;;;;;;;38.15;20.60;;;3.70;99.90;;;;;;5009509;28;20484;-60
2020/12/26 02:53:34;;;;;;;37.60;21.55;;;3.70;99.90;;;;;;4993061;28;20038;-60
2020/12/26 02:56:00;;;;;;;35.42;20.02;;;3.70;99.90;;;;;;4991026;28;20038;-60
2020/12/26 02:58:26;;;;;;;39.75;20.83;;;3.70;99.90;;;;;;4995971;28;20061;-60
2020/12/26 03:00:51;;;;;;;35.65;21.15;;;3.70;99.90;;;;;;5008878;28;20447;-59
2020/12/26 03:03:17;;;;;;;36.05;20.52;;;3.70;99.90;;;;;;4996899;28;20033;-60
2020/12/26 03:05:43;;;;;;;38.90;20.33;;;3.80;99.90;;;;;;4995251;28;20081;-60
2020/12/26 03:08:08;;;;;;;40.90;20.27;;;3.80;99.90;;;;;;5004909;28;20034;-60
2020/12/26 03:10:34;;;;;;;43.13;21.92;;;3.80;99.90;;;;;;5009242;28;20443;-60
2020/12/26 03:13:00;;;;;;;35.70;18.73;;;3.80;99.90;;;;;;5008585;28;20036;-60
2020/12/26 03:15:26;;;;;;;37.65;20.63;;;3.80;99.90;;;;;;4998455;28;20405;-60
2020/12/26 03:17:51;;;;;;;34.45;19.73;;;3.80;99.90;;;;;;4992719;28;20034;-60
2020/12/26 03:20:17;;;;;;;29.25;19.13;;;3.80;99.90;;;;;;5004845;28;20066;-58
2020/12/26 03:22:42;;;;;;;36.90;19.48;;;3.90;99.90;;;;;;5007642;28;20120;-60
2020/12/26 03:25:08;;;;;;;29.48;18.48;;;3.90;99.90;;;;;;4996303;28;20152;-60
2020/12/26 03:27:33;;;;;;;31.27;18.40;;;3.80;99.90;;;;;;5009641;28;20029;-59
2020/12/26 03:29:59;;;;;;;29.05;17.02;;;3.80;99.90;;;;;;5010538;28;20026;-60
2020/12/26 03:32:24;;;;;;;29.75;17.15;;;3.80;99.90;;;;;;4993598;28;20030;-60
2020/12/26 03:34:50;;;;;;;26.15;15.32;;;3.90;99.90;;;;;;5006052;28;20038;-59
2020/12/26 03:37:16;;;;;;;30.42;14.90;;;3.90;99.90;;;;;;5007632;28;20094;-60
2020/12/26 03:39:42;;;;;;;33.08;17.15;;;3.90;99.90;;;;;;5008266;28;20160;-59
2020/12/26 03:42:10;;;;;;;29.88;15.65;;;3.90;99.90;;;;;;5002626;28;20105;-59
2020/12/26 03:44:37;;;;;;;30.77;16.45;;;3.90;99.90;;;;;;5000193;28;20185;-59
2020/12/26 03:47:08;;;;;;;31.55;14.98;;;3.90;99.90;;;;;;4997611;28;20117;-59
2020/12/26 03:49:34;;;;;;;26.50;15.13;;;3.90;99.90;;;;;;5001115;28;20029;-60
2020/12/26 03:52:00;;;;;;;29.55;14.73;;;4.00;99.90;;;;;;5005040;28;20064;-60
2020/12/26 03:54:25;;;;;;;25.38;14.75;;;4.00;99.90;;;;;;5002342;28;20034;-59
2020/12/26 03:56:51;;;;;;;25.70;15.05;;;4.00;99.90;;;;;;4992679;28;20041;-60
2020/12/26 03:59:16;;;;;;;29.20;15.50;;;4.00;99.90;;;;;;4994190;28;20102;-57
2020/12/26 04:01:43;;;;;;;35.53;17.85;;;4.00;99.90;;;;;;4999658;28;20029;-60
2020/12/26 04:04:09;;;;;;;35.55;17.15;;;3.90;99.90;;;;;;5004019;28;20030;-60
2020/12/26 04:06:34;;;;;;;33.00;17.27;;;3.90;99.90;;;;;;5009432;28;20105;-60
2020/12/26 04:09:00;;;;;;;30.25;16.48;;;3.90;99.90;;;;;;5005512;28;20041;-60
2020/12/26 04:11:26;;;;;;;34.17;17.95;;;3.90;99.90;;;;;;4999167;28;20032;-59
2020/12/26 04:13:52;;;;;;;32.40;16.45;;;3.90;99.90;;;;;;4991661;28;20038;-60
2020/12/26 04:16:18;;;;;;;30.08;18.17;;;3.90;99.90;;;;;;4992179;28;20038;-60
2020/12/26 04:18:43;;;;;;;26.90;16.58;;;3.90;99.90;;;;;;5004260;28;20034;-60
2020/12/26 04:21:09;;;;;;;30.23;17.70;;;3.90;99.90;;;;;;5009130;28;20041;-59
2020/12/26 04:23:35;;;;;;;32.97;17.02;;;3.90;99.90;;;;;;5006626;28;20418;-60
2020/12/26 04:26:01;;;;;;;32.97;18.20;;;4.00;99.90;;;;;;4998221;28;20033;-59
2020/12/26 04:28:27;;;;;;;33.35;17.80;;;3.90;99.90;;;;;;4993258;28;20451;-59
2020/12/26 04:30:53;;;;;;;30.70;16.77;;;4.00;99.90;;;;;;4994438;28;20026;-60
2020/12/26 04:33:18;;;;;;;34.20;17.98;;;4.00;99.90;;;;;;4996897;28;20092;-58
2020/12/26 04:35:44;;;;;;;32.53;17.50;;;4.00;99.90;;;;;;4996622;28;20030;-59
2020/12/26 04:38:10;;;;;;;30.40;18.05;;;4.10;99.90;;;;;;4998593;28;20062;-57
2020/12/26 04:40:35;;;;;;;34.15;16.58;;;4.00;99.90;;;;;;4990124;28;20491;-60
2020/12/26 04:43:02;;;;;;;27.80;16.88;;;4.10;99.90;;;;;;4989538;28;20409;-60
2020/12/26 04:45:28;;;;;;;32.40;18.98;;;4.10;99.90;;;;;;5004854;28;20826;-60
2020/12/26 04:48:05;;;;;;;37.55;18.65;;;4.10;99.90;;;;;;4995939;28;20048;-59
2020/12/26 04:50:33;;;;;;;31.02;18.08;;;4.10;99.90;;;;;;5007606;28;20030;-60
2020/12/26 04:53:01;;;;;;;33.65;17.88;;;4.10;99.90;;;;;;5000274;28;20038;-60
2020/12/26 04:55:35;;;;;;;34.90;18.95;;;4.10;99.90;;;;;;4993767;28;20109;-60
2020/12/26 04:58:11;;;;;;;23.83;14.60;;;4.10;99.90;;;;;;5004296;28;20022;-59
2020/12/26 05:00:38;;;;;;;37.90;18.10;;;4.10;99.90;;;;;;4992979;28;20038;-60
2020/12/26 05:03:05;;;;;;;30.45;19.25;;;4.10;99.90;;;;;;5009088;28;20033;-60
2020/12/26 05:05:33;;;;;;;34.47;19.88;;;4.10;99.90;;;;;;5002073;28;20025;-59
2020/12/26 05:07:59;;;;;;;32.88;20.15;;;4.10;99.90;;;;;;5005134;28;20436;-59
2020/12/26 05:10:25;;;;;;;35.47;20.08;;;4.10;99.90;;;;;;4999112;28;20029;-59
2020/12/26 05:12:51;;;;;;;36.10;20.30;;;4.10;99.90;;;;;;4994188;28;20014;-59
2020/12/26 05:15:16;;;;;;;35.78;20.52;;;4.10;99.90;;;;;;5004691;28;20030;-60
2020/12/26 05:17:42;;;;;;;34.97;20.35;;;4.10;99.90;;;;;;4991009;28;20031;-60
2020/12/26 05:20:08;;;;;;;38.80;22.23;;;4.20;99.90;;;;;;4999591;28;20061;-60
2020/12/26 05:22:34;;;;;;;36.20;23.08;;;4.10;99.90;;;;;;4991760;28;20038;-60
2020/12/26 05:25:09;;;;;;;43.03;24.67;;;4.10;99.90;;;;;;5000863;28;20038;-60
2020/12/26 05:27:35;;;;;;;45.78;24.77;;;4.10;99.90;;;;;;4990532;28;20033;-60
2020/12/26 05:30:02;;;;;;;42.15;25.48;;;4.10;99.90;;;;;;5008003;28;20026;-60
2020/12/26 05:32:28;;;;;;;42.20;26.08;;;4.10;99.90;;;;;;5005252;28;20049;-60
2020/12/26 05:35:05;;;;;;;48.30;27.58;;;4.10;99.90;;;;;;5007933;28;20489;-60
2020/12/26 05:37:31;;;;;;;59.55;29.98;;;4.20;99.90;;;;;;5005826;28;20481;-60
2020/12/26 05:40:01;;;;;;;51.40;29.55;;;4.20;99.90;;;;;;4989108;28;20034;-61
2020/12/26 05:42:28;;;;;;;50.33;28.42;;;4.20;99.90;;;;;;5004028;28;20037;-60
2020/12/26 05:45:08;;;;;;;49.25;28.23;;;4.20;99.90;;;;;;5005994;28;20053;-60
2020/12/26 05:47:34;;;;;;;53.50;30.88;;;4.30;99.90;;;;;;4997200;28;20030;-60
2020/12/26 05:50:00;;;;;;;54.47;29.13;;;4.30;99.90;;;;;;5006617;28;20036;-60
2020/12/26 05:52:29;;;;;;;53.08;27.92;;;4.30;99.90;;;;;;5007960;28;20038;-61
2020/12/26 05:54:55;;;;;;;49.83;28.02;;;4.30;99.90;;;;;;4998512;28;20034;-60
2020/12/26 05:57:21;;;;;;;45.75;26.92;;;4.30;99.90;;;;;;4994321;28;20045;-59
2020/12/26 05:59:48;;;;;;;52.25;27.05;;;4.30;99.90;;;;;;4995722;28;20026;-61
2020/12/26 06:02:27;;;;;;;46.13;26.40;;;4.20;99.90;;;;;;4993707;28;20703;-60
2020/12/26 06:04:54;;;;;;;48.30;27.60;;;4.20;99.90;;;;;;5001034;28;20742;-60
2020/12/26 06:07:35;;;;;;;44.25;26.52;;;4.20;99.90;;;;;;5010151;28;20440;-59
2020/12/26 06:10:05;;;;;;;47.42;26.58;;;4.10;99.90;;;;;;5002358;28;20037;-61
2020/12/26 06:12:31;;;;;;;52.17;26.75;;;4.20;99.90;;;;;;5002842;28;20038;-60
2020/12/26 06:14:58;;;;;;;44.90;27.00;;;4.20;99.90;;;;;;5009923;28;20030;-59
2020/12/26 06:17:31;;;;;;;43.20;24.60;;;4.10;99.90;;;;;;4994862;28;20022;-60
2020/12/26 06:20:07;;;;;;;44.83;26.00;;;4.10;99.90;;;;;;5002079;28;20461;-61
2020/12/26 06:22:43;;;;;;;50.30;26.90;;;4.10;99.90;;;;;;5003290;28;20034;-60
2020/12/26 06:25:11;;;;;;;43.80;26.00;;;4.10;99.90;;;;;;5005477;28;20049;-60
2020/12/26 06:27:44;;;;;;;49.38;27.42;;;4.00;99.90;;;;;;5003571;28;20037;-59
2020/12/26 06:30:10;;;;;;;46.50;27.23;;;4.00;99.90;;;;;;4994051;28;20034;-61
2020/12/26 06:32:36;;;;;;;55.08;27.23;;;4.00;99.90;;;;;;5000148;28;20034;-59
2020/12/26 06:35:02;;;;;;;53.20;28.10;;;4.00;99.90;;;;;;5007808;28;20041;-60
2020/12/26 06:37:27;;;;;;;51.92;29.08;;;4.00;99.90;;;;;;5008695;28;20026;-60
2020/12/26 06:39:53;;;;;;;44.95;27.25;;;4.00;99.90;;;;;;5009630;28;20038;-59
2020/12/26 06:42:19;;;;;;;50.55;28.25;;;4.00;99.90;;;;;;4996163;28;20025;-60
2020/12/26 06:44:48;;;;;;;51.65;28.00;;;4.10;99.90;;;;;;5003244;28;20469;-60
2020/12/26 06:47:36;;;;;;;53.38;30.92;;;4.10;99.90;;;;;;5000977;28;20022;-60
2020/12/26 06:50:22;;;;;;;46.03;26.98;;;4.10;99.90;;;;;;5002292;28;20034;-60
2020/12/26 06:52:48;;;;;;;45.65;26.08;;;4.10;99.90;;;;;;4997614;28;21527;-60
2020/12/26 06:55:39;;;;;;;41.50;25.08;;;4.10;99.90;;;;;;4998769;28;20061;-60
2020/12/26 06:58:25;;;;;;;43.60;24.52;;;4.20;99.90;;;;;;5004396;28;20114;-59
2020/12/26 07:00:51;;;;;;;42.42;23.23;;;4.20;99.90;;;;;;5001826;28;20102;-60
2020/12/26 07:03:24;;;;;;;43.08;23.92;;;4.20;99.90;;;;;;5008844;28;20081;-60
2020/12/26 07:05:52;;;;;;;37.97;21.85;;;4.20;99.90;;;;;;5007187;28;20066;-58
2020/12/26 07:08:21;;;;;;;38.22;21.55;;;4.20;99.90;;;;;;5006769;28;20026;-60
2020/12/26 07:10:47;;;;;;;36.10;20.00;;;4.20;99.90;;;;;;4992835;28;20073;-60
2020/12/26 07:13:44;;;;;;;38.72;20.80;;;4.20;99.90;;;;;;4998879;28;20426;-61
2020/12/26 07:16:41;;;;;;;33.75;19.38;;;4.20;99.90;;;;;;5001696;28;20033;-61
2020/12/26 07:19:19;;;;;;;27.52;17.20;;;4.20;99.90;;;;;;4999668;28;20507;-60
2020/12/26 07:21:48;;;;;;;30.73;18.85;;;4.20;99.90;;;;;;5010524;28;20120;-60
2020/12/26 07:24:17;;;;;;;30.38;18.02;;;4.20;99.90;;;;;;5006583;28;20036;-60
2020/12/26 07:26:43;;;;;;;31.58;18.05;;;4.20;99.90;;;;;;4993574;28;20398;-60
2020/12/26 07:29:27;;;;;;;29.58;19.05;;;4.20;99.90;;;;;;5006784;28;20046;-60
2020/12/26 07:31:53;;;;;;;;;;;4.20;99.90;;;;;;5006033;28;20038;-60
2020/12/26 07:34:40;;;;;;;30.95;18.83;;;4.20;99.90;;;;;;4995068;28;19913;-59
2020/12/26 07:37:06;;;;;;;29.85;18.15;;;4.10;99.90;;;;;;5002492;28;20092;-60
2020/12/26 07:39:32;;;;;;;32.33;18.98;;;4.10;99.90;;;;;;5009434;28;20033;-60
2020/12/26 07:41:58;;;;;;;27.90;17.73;;;4.10;99.90;;;;;;5007282;28;20030;-59
2020/12/26 07:44:28;;;;;;;33.97;18.65;;;4.10;99.90;;;;;;4998253;28;20022;-61
2020/12/26 07:46:57;;;;;;;26.92;16.70;;;4.10;99.90;;;;;;5001252;28;20076;-60
2020/12/26 07:49:24;;;;;;;36.92;18.15;;;4.10;99.90;;;;;;5003444;28;20026;-60
2020/12/26 07:52:06;;;;;;;42.30;19.50;;;4.00;99.90;;;;;;4997068;28;20500;-58
2020/12/26 07:54:32;;;;;;;36.92;19.25;;;3.90;99.90;;;;;;5001585;28;20026;-59
2020/12/26 07:56:58;;;;;;;30.08;18.52;;;3.80;99.90;;;;;;4995555;28;20101;-60
2020/12/26 07:59:24;;;;;;;30.35;17.02;;;3.70;99.90;;;;;;5010052;28;20029;-60
2020/12/26 08:01:54;;;;;;;29.00;17.20;;;3.70;99.90;;;;;;5010297;28;20359;-60
2020/12/26 08:04:20;;;;;;;30.92;18.83;;;3.70;99.90;;;;;;5006028;28;20029;-60
2020/12/26 08:06:47;;;;;;;23.83;13.40;;;3.70;99.90;;;;;;4991683;28;20045;-60
2020/12/26 08:09:14;;;;;;;25.67;14.75;;;3.70;99.90;;;;;;4995312;28;20106;-60
2020/12/26 08:11:41;;;;;;;25.48;14.82;;;3.80;99.90;;;;;;4997926;28;20113;-58
2020/12/26 08:14:06;;;;;;;27.60;13.63;;;3.70;99.90;;;;;;5006808;28;20037;-59
2020/12/26 08:16:32;;;;;;;22.85;13.02;;;3.70;99.90;;;;;;4999352;28;20227;-60
2020/12/26 08:19:01;;;;;;;21.60;13.10;;;3.80;99.90;;;;;;5000528;28;20042;-59
2020/12/26 08:21:26;;;;;;;19.65;11.30;;;3.70;99.90;;;;;;5008844;28;20026;-60
2020/12/26 08:24:00;;;;;;;21.52;12.18;;;3.70;99.90;;;;;;5006511;28;20045;-61
2020/12/26 08:26:27;;;;;;;18.00;11.90;;;3.70;99.90;;;;;;4999265;28;20026;-61
2020/12/26 08:29:05;;;;;;;20.70;11.40;;;3.70;99.90;;;;;;4995032;28;20065;-61
2020/12/26 08:31:32;;;;;;;18.38;10.85;;;3.70;99.90;;;;;;4990935;28;20153;-60
2020/12/26 08:34:17;;;;;;;18.50;10.13;;;3.70;99.90;;;;;;4999930;28;20026;-61
2020/12/26 08:36:55;;;;;;;18.73;9.63;;;3.70;99.90;;;;;;5007374;28;20018;-60
2020/12/26 08:39:23;;;;;;;17.08;9.73;;;3.80;99.90;;;;;;4993935;28;20057;-60
2020/12/26 08:41:52;;;;;;;13.25;8.45;;;3.70;99.90;;;;;;4991475;28;20045;-61
2020/12/26 08:44:18;;;;;;;17.33;9.50;;;3.80;99.90;;;;;;4994359;28;20026;-61
2020/12/26 08:46:46;;;;;;;17.23;9.35;;;3.80;99.90;;;;;;5017660;28;20029;-60
2020/12/26 08:49:13;;;;;;;14.63;8.30;;;3.90;99.90;;;;;;5016477;28;20417;-61
2020/12/26 08:51:45;;;;;;;20.95;9.05;;;3.90;99.90;;;;;;5008584;28;20037;-61
2020/12/26 08:54:18;;;;;;;12.93;8.32;;;4.00;99.90;;;;;;5007921;28;20022;-61
2020/12/26 08:56:44;;;;;;;17.42;8.43;;;4.10;99.90;;;;;;5007445;28;20126;-60
2020/12/26 08:59:10;;;;;;;18.05;10.07;;;4.10;99.90;;;;;;5005028;28;20117;-61
2020/12/26 09:01:36;;;;;;;19.13;9.00;;;4.20;99.90;;;;;;5007436;28;20026;-61
2020/12/26 09:04:02;;;;;;;15.13;8.88;;;4.20;99.90;;;;;;5004359;28;20313;-61
2020/12/26 09:06:39;;;;;;;14.55;8.32;;;4.30;99.90;;;;;;5006496;28;20394;-60
2020/12/26 09:09:14;;;;;;;19.45;10.68;;;4.30;99.90;;;;;;5005661;28;20397;-61
2020/12/26 09:11:40;;;;;;;15.52;9.70;;;4.30;99.90;;;;;;5001916;28;20247;-61
2020/12/26 09:14:34;;;;;;;21.58;11.10;;;4.40;99.90;;;;;;4989985;28;20038;-60
2020/12/26 09:17:02;;;;;;;17.30;9.48;;;4.40;99.90;;;;;;4988947;28;20122;-61
2020/12/26 09:19:44;;;;;;;21.63;10.35;;;4.50;99.90;;;;;;4997250;28;20034;-61
2020/12/26 09:22:11;;;;;;;20.85;8.95;;;4.50;99.90;;;;;;4999030;28;20068;-61
2020/12/26 09:24:37;;;;;;;17.95;8.95;;;4.60;99.90;;;;;;5003412;28;20337;-60
2020/12/26 09:27:03;;;;;;;14.68;6.65;;;4.60;99.90;;;;;;5001728;28;20026;-61
2020/12/26 09:29:29;;;;;;;11.55;6.53;;;4.70;99.90;;;;;;5003038;28;20041;-61
2020/12/26 09:31:54;;;;;;;10.52;5.50;;;4.80;99.90;;;;;;5001357;28;20034;-61
2020/12/26 09:34:25;;;;;;;10.65;5.43;;;4.80;99.90;;;;;;5005467;28;20483;-60
2020/12/26 09:37:07;;;;;;;11.38;6.53;;;4.80;99.90;;;;;;5009347;28;20150;-59
2020/12/26 09:39:34;;;;;;;13.30;6.25;;;4.90;99.90;;;;;;4998678;28;20026;-61
2020/12/26 09:42:00;;;;;;;13.85;6.47;;;4.90;99.90;;;;;;5005102;28;20030;-58
2020/12/26 09:44:25;;;;;;;13.40;6.25;;;4.90;99.90;;;;;;4994476;28;20201;-61
2020/12/26 09:47:03;;;;;;;13.27;6.18;;;5.00;99.90;;;;;;5001603;28;20405;-61
2020/12/26 09:49:29;;;;;;;13.15;5.50;;;5.00;99.90;;;;;;5003606;28;20025;-60
2020/12/26 09:51:55;;;;;;;13.75;5.90;;;5.00;99.90;;;;;;5003244;28;20104;-61
2020/12/26 09:54:20;;;;;;;10.18;5.57;;;5.10;99.90;;;;;;5000580;28;20474;-61
2020/12/26 09:56:46;;;;;;;10.45;5.40;;;5.10;99.90;;;;;;5003363;28;20049;-61
2020/12/26 09:59:11;;;;;;;10.70;5.40;;;5.10;99.90;;;;;;5005362;28;20064;-59
2020/12/26 10:01:39;;;;;;;12.93;4.85;;;5.20;99.90;;;;;;4993585;28;20463;-61
2020/12/26 10:04:04;;;;;;;7.85;4.25;;;5.20;99.90;;;;;;5000663;28;20124;-61
2020/12/26 10:06:30;;;;;;;10.07;4.43;;;5.20;99.90;;;;;;5006375;28;20108;-61
2020/12/26 10:08:55;;;;;;;10.30;4.78;;;5.20;99.90;;;;;;5006110;28;20034;-60
2020/12/26 10:11:21;;;;;;;10.82;5.20;;;5.30;99.90;;;;;;5002890;28;20492;-61
2020/12/26 10:13:48;;;;;;;7.90;4.78;;;5.30;99.90;;;;;;4992469;28;20034;-61
2020/12/26 10:16:17;;;;;;;8.30;4.18;;;5.30;99.90;;;;;;5007101;28;20105;-61
2020/12/26 10:18:43;;;;;;;8.48;4.40;;;5.40;99.90;;;;;;4992104;28;20030;-61
2020/12/26 10:21:13;;;;;;;9.25;3.75;;;5.60;99.90;;;;;;4997553;28;20512;-60
2020/12/26 10:23:39;;;;;;;6.78;3.50;;;5.60;99.90;;;;;;5001493;28;20042;-61
2020/12/26 10:26:05;;;;;;;8.07;3.58;;;5.60;99.90;;;;;;5008003;28;20400;-61
2020/12/26 10:28:31;;;;;;;8.25;3.83;;;5.60;99.90;;;;;;5001988;28;20034;-61
2020/12/26 10:30:57;;;;;;;5.93;3.67;;;5.60;99.90;;;;;;5000294;28;20137;-61
2020/12/26 10:33:23;;;;;;;11.98;3.65;;;5.60;99.90;;;;;;5005091;28;20026;-60
2020/12/26 10:35:48;;;;;;;8.05;3.15;;;5.50;99.90;;;;;;5006963;28;20061;-61
2020/12/26 10:38:14;;;;;;;9.65;3.80;;;5.50;99.90;;;;;;5004629;28;20038;-61
2020/12/26 10:40:40;;;;;;;7.13;3.33;;;5.40;99.90;;;;;;4995996;28;20033;-61
2020/12/26 10:43:05;;;;;;;6.88;2.88;;;5.50;99.90;;;;;;4997171;28;20091;-61
2020/12/26 10:45:31;;;;;;;6.47;3.00;;;5.60;99.90;;;;;;5001730;28;20119;-61
2020/12/26 10:47:56;;;;;;;7.18;2.95;;;5.60;99.90;;;;;;4994230;28;20041;-61
2020/12/26 10:50:22;;;;;;;7.55;2.65;;;5.60;99.90;;;;;;5005123;28;20076;-61
2020/12/26 10:52:47;;;;;;;7.72;2.85;;;5.60;99.90;;;;;;5007139;28;20037;-61
2020/12/26 10:55:14;;;;;;;9.05;2.70;;;5.70;99.90;;;;;;5008590;28;20112;-61
2020/12/26 10:57:40;;;;;;;4.20;2.20;;;5.70;99.90;;;;;;5004727;28;20101;-61
2020/12/26 11:00:06;;;;;;;4.40;2.45;;;5.80;99.90;;;;;;5005857;28;20042;-61
2020/12/26 11:02:32;;;;;;;5.22;3.00;;;5.90;99.90;;;;;;5004198;28;20036;-62
2020/12/26 11:04:58;;;;;;;7.40;2.50;;;5.90;99.90;;;;;;5002556;28;20037;-62
2020/12/26 11:07:23;;;;;;;8.52;2.50;;;5.90;99.90;;;;;;4999730;28;20042;-61
2020/12/26 11:09:49;;;;;;;5.28;2.00;;;5.80;99.90;;;;;;5009105;28;20037;-61
2020/12/26 11:12:14;;;;;;;10.95;2.55;;;5.80;99.90;;;;;;5015125;28;20068;-61
2020/12/26 11:14:40;;;;;;;6.32;2.38;;;5.70;99.90;;;;;;5016878;28;20129;-62
2020/12/26 11:17:05;;;;;;;8.93;2.38;;;5.70;99.90;;;;;;5008858;28;20041;-62
2020/12/26 11:19:31;;;;;;;5.32;2.03;;;5.70;99.90;;;;;;5009758;28;20370;-60
2020/12/26 11:21:56;;;;;;;2.83;1.60;;;5.70;99.90;;;;;;4999080;28;20042;-61
2020/12/26 11:24:22;;;;;;;3.03;1.70;;;5.70;99.90;;;;;;5007232;28;20847;-61
2020/12/26 11:26:48;;;;;;;3.33;1.60;;;5.70;99.90;;;;;;4999751;28;20025;-60
2020/12/26 11:29:14;;;;;;;5.57;2.70;;;5.80;99.90;;;;;;4998261;28;20065;-61
2020/12/26 11:31:40;;;;;;;3.80;2.00;;;5.80;99.90;;;;;;4993660;28;20108;-61
2020/12/26 11:34:06;;;;;;;6.38;2.30;;;5.90;99.90;;;;;;5005981;28;20073;-62
2020/12/26 11:36:32;;;;;;;9.20;1.92;;;5.90;99.90;;;;;;5000621;28;20478;-61
2020/12/26 11:38:58;;;;;;;4.72;2.08;;;6.00;99.90;;;;;;4994423;28;20087;-59
2020/12/26 11:41:26;;;;;;;5.53;2.08;;;6.00;99.90;;;;;;5003111;28;20056;-60
2020/12/26 11:43:52;;;;;;;3.15;2.17;;;6.10;99.90;;;;;;5008684;28;20034;-61
2020/12/26 11:46:18;;;;;;;5.90;2.80;;;6.30;99.90;;;;;;5007962;28;20386;-61
2020/12/26 11:48:44;;;;;;;7.97;2.45;;;6.30;99.90;;;;;;5005970;28;20033;-61
2020/12/26 11:51:10;;;;;;;10.77;3.22;;;6.40;99.90;;;;;;4999842;28;20030;-61
2020/12/26 11:53:37;;;;;;;7.22;2.80;;;6.50;99.90;;;;;;4995841;28;20022;-59
2020/12/26 11:56:11;;;;;;;5.57;2.58;;;6.60;99.90;;;;;;4997709;28;20027;-60
2020/12/26 11:58:37;;;;;;;8.35;2.50;;;6.70;99.90;;;;;;4997826;28;20045;-59
2020/12/26 12:01:05;;;;;;;2.88;2.10;;;6.70;99.90;;;;;;4996617;28;20029;-61
2020/12/26 12:03:31;;;;;;;8.70;3.25;;;6.60;99.90;;;;;;4997084;28;20080;-59
2020/12/26 12:05:57;;;;;;;4.78;2.33;;;6.40;99.90;;;;;;5001068;28;20030;-60
2020/12/26 12:08:22;;;;;;;8.65;2.50;;;6.40;99.90;;;;;;5001983;28;20056;-59
2020/12/26 12:10:48;;;;;;;5.32;2.08;;;6.40;99.90;;;;;;4998995;28;20064;-61
2020/12/26 12:13:13;;;;;;;4.63;2.10;;;6.30;99.90;;;;;;4995552;28;20109;-55
2020/12/26 12:15:39;;;;;;;3.25;1.70;;;6.40;99.90;;;;;;4998697;28;20385;-56
2020/12/26 12:18:05;;;;;;;9.75;1.50;;;6.40;99.90;;;;;;5009202;28;20036;-57
2020/12/26 12:20:31;;;;;;;6.07;2.25;;;6.40;99.90;;;;;;5004153;28;20033;-57
2020/12/26 12:22:57;;;;;;;3.63;1.55;;;6.50;99.90;;;;;;4999019;28;20029;-61
2020/12/26 12:25:24;;;;;;;6.60;4.07;;;6.70;99.90;;;;;;4995724;28;20113;-60
2020/12/26 12:27:50;;;;;;;6.07;4.10;;;7.10;99.90;;;;;;4998175;28;20026;-58
2020/12/26 12:30:16;;;;;;;5.07;1.30;;;7.30;99.90;;;;;;4993011;28;20040;-60
2020/12/26 12:32:42;;;;;;;5.93;1.48;;;7.40;99.90;;;;;;5009002;28;20053;-60
2020/12/26 12:35:08;;;;;;;4.78;1.48;;;7.50;99.90;;;;;;5001515;28;20112;-60
2020/12/26 12:37:34;;;;;;;4.90;1.15;;;7.70;99.90;;;;;;4991789;28;20030;-61
2020/12/26 12:40:00;;;;;;;4.00;1.63;;;7.60;99.90;;;;;;4998873;28;20042;-59
2020/12/26 12:42:29;;;;;;;5.63;1.13;;;7.60;99.90;;;;;;5001540;28;20573;-58
2020/12/26 12:44:55;;;;;;;4.20;1.27;;;7.70;99.90;;;;;;5008807;28;20028;-60